AQQ10 IFIS: Internet Flight Information System
logo dgac
Martes 21 de Septiembre del 2021
Buscar por aerodromo o helipuerto
Ingrese nombre de aeródromo, localidad o designador OACI:
METAR del 21-09-2021 a las 10:00 UTC
Para mayor información visite www.meteochile.cl
METAR SCHR 211000Z AUTO 27008KT CAVOK 04/01 Q1021
Viento: dirección 270 grados, velocidad 8 nudos
Visibilidad: 10 km o más,
    sin nubes bajo los 5.000 pies o bajo del MSA (Mínimo de Seguridad del Aeródromo),
    sin cumulonimbus, y sin fenómenos de tiempo significativo en el aeródromo o alrededores
Temperatura: 4 °C
Rocío: 1 °C
Humedad_relativa: 81%
Presión: 1021 hPa
METAR del 21-09-2021 a las 09:00 UTC
Para mayor información visite www.meteochile.cl
METAR SCHR 210900Z AUTO VRB02KT CAVOK 04/01 Q1021
Viento: dirección variable, velocidad 2 nudos
Visibilidad: 10 km o más,
    sin nubes bajo los 5.000 pies o bajo del MSA (Mínimo de Seguridad del Aeródromo),
    sin cumulonimbus, y sin fenómenos de tiempo significativo en el aeródromo o alrededores
Temperatura: 4 °C
Rocío: 1 °C
Humedad_relativa: 81%
Presión: 1021 hPa
METAR del 21-09-2021 a las 07:00 UTC
Para mayor información visite www.meteochile.cl
METAR SCHR 210700Z AUTO 28007KT CAVOK 06/02 Q1023
Viento: dirección 280 grados, velocidad 7 nudos
Visibilidad: 10 km o más,
    sin nubes bajo los 5.000 pies o bajo del MSA (Mínimo de Seguridad del Aeródromo),
    sin cumulonimbus, y sin fenómenos de tiempo significativo en el aeródromo o alrededores
Temperatura: 6 °C
Rocío: 2 °C
Humedad_relativa: 76%
Presión: 1023 hPa
METAR del 21-09-2021 a las 05:00 UTC
Para mayor información visite www.meteochile.cl
METAR SCHR 210500Z AUTO 27006KT CAVOK 06/02 Q1023
Viento: dirección 270 grados, velocidad 6 nudos
Visibilidad: 10 km o más,
    sin nubes bajo los 5.000 pies o bajo del MSA (Mínimo de Seguridad del Aeródromo),
    sin cumulonimbus, y sin fenómenos de tiempo significativo en el aeródromo o alrededores
Temperatura: 6 °C
Rocío: 2 °C
Humedad_relativa: 76%
Presión: 1023 hPa
METAR del 21-09-2021 a las 04:00 UTC
Para mayor información visite www.meteochile.cl
METAR SCHR 210400Z AUTO VRB02KT CAVOK 05/02 Q1023
Viento: dirección variable, velocidad 2 nudos
Visibilidad: 10 km o más,
    sin nubes bajo los 5.000 pies o bajo del MSA (Mínimo de Seguridad del Aeródromo),
    sin cumulonimbus, y sin fenómenos de tiempo significativo en el aeródromo o alrededores
Temperatura: 5 °C
Rocío: 2 °C
Humedad_relativa: 81%
Presión: 1023 hPa
METAR del 21-09-2021 a las 03:00 UTC
Para mayor información visite www.meteochile.cl
METAR SCHR 210300Z AUTO 29009KT CAVOK 08/02 Q1023
Viento: dirección 290 grados, velocidad 9 nudos
Visibilidad: 10 km o más,
    sin nubes bajo los 5.000 pies o bajo del MSA (Mínimo de Seguridad del Aeródromo),
    sin cumulonimbus, y sin fenómenos de tiempo significativo en el aeródromo o alrededores
Temperatura: 8 °C
Rocío: 2 °C
Humedad_relativa: 66%
Presión: 1023 hPa
METAR del 21-09-2021 a las 01:00 UTC
Para mayor información visite www.meteochile.cl
METAR SCHR 210100Z AUTO 31003KT 270V020 CAVOK 08/02 Q1024
Viento: dirección 310 grados, velocidad 3 nudos
Viento con dirección variable entre 270 y 020 grados
Visibilidad: 10 km o más,
    sin nubes bajo los 5.000 pies o bajo del MSA (Mínimo de Seguridad del Aeródromo),
    sin cumulonimbus, y sin fenómenos de tiempo significativo en el aeródromo o alrededores
Temperatura: 8 °C
Rocío: 2 °C
Humedad_relativa: 66%
Presión: 1024 hPa
METAR del 21-09-2021 a las 00:00 UTC
Para mayor información visite www.meteochile.cl
METAR SCHR 210000Z AUTO 35005KT CAVOK 09/02 Q1024
Viento: dirección 350 grados, velocidad 5 nudos
Visibilidad: 10 km o más,
    sin nubes bajo los 5.000 pies o bajo del MSA (Mínimo de Seguridad del Aeródromo),
    sin cumulonimbus, y sin fenómenos de tiempo significativo en el aeródromo o alrededores
Temperatura: 9 °C
Rocío: 2 °C
Humedad_relativa: 62%
Presión: 1024 hPa
METAR del 20-09-2021 a las 23:00 UTC
Para mayor información visite www.meteochile.cl
METAR SCHR 202300Z AUTO 26007KT CAVOK 11/02 Q1023
Viento: dirección 260 grados, velocidad 7 nudos
Visibilidad: 10 km o más,
    sin nubes bajo los 5.000 pies o bajo del MSA (Mínimo de Seguridad del Aeródromo),
    sin cumulonimbus, y sin fenómenos de tiempo significativo en el aeródromo o alrededores
Temperatura: 11 °C
Rocío: 2 °C
Humedad_relativa: 54%
Presión: 1023 hPa
METAR del 20-09-2021 a las 22:00 UTC
Para mayor información visite www.meteochile.cl
METAR SCHR 202200Z AUTO 23006KT 200V270 CAVOK 14/02 Q1023
Viento: dirección 230 grados, velocidad 6 nudos
Viento con dirección variable entre 200 y 270 grados
Visibilidad: 10 km o más,
    sin nubes bajo los 5.000 pies o bajo del MSA (Mínimo de Seguridad del Aeródromo),
    sin cumulonimbus, y sin fenómenos de tiempo significativo en el aeródromo o alrededores
Temperatura: 14 °C
Rocío: 2 °C
Humedad_relativa: 44%
Presión: 1023 hPa